createdAt,value
2019-04-23T00:01:03.005Z,978.08
2019-04-23T00:01:50.984Z,977.96
2019-04-23T00:02:53.535Z,977.99
2019-04-23T00:03:47.585Z,977.97
2019-04-23T00:04:42.629Z,977.97
2019-04-23T00:06:07.350Z,977.98
2019-04-23T00:07:02.700Z,977.93
2019-04-23T00:08:23.324Z,977.93
2019-04-23T00:09:15.573Z,977.95
2019-04-23T00:09:49.680Z,977.92
2019-04-23T00:10:42.478Z,977.91
2019-04-23T00:11:51.816Z,977.87
2019-04-23T00:13:08.779Z,977.83
2019-04-23T00:14:11.625Z,977.85
2019-04-23T00:15:03.383Z,977.80
2019-04-23T00:15:54.810Z,977.78
2019-04-23T00:16:50.334Z,977.79
2019-04-23T00:17:48.949Z,977.76
2019-04-23T00:18:46.120Z,977.75
2019-04-23T00:19:48.552Z,977.73
2019-04-23T00:21:11.856Z,977.74
2019-04-23T00:21:45.878Z,977.72
2019-04-23T00:23:59.556Z,977.70
2019-04-23T00:25:12.110Z,977.67
2019-04-23T00:25:52.654Z,977.63
2019-04-23T00:27:22.633Z,977.61
2019-04-23T00:27:55.235Z,977.65
2019-04-23T00:29:00.573Z,977.60
2019-04-23T00:29:57.636Z,977.59
2019-04-23T00:30:58.252Z,977.60
2019-04-23T00:31:59.599Z,977.60
2019-04-23T00:32:48.108Z,977.55
2019-04-23T00:34:17.752Z,977.55
2019-04-23T00:37:49.550Z,977.56
2019-04-23T00:38:51.274Z,977.61
2019-04-23T00:41:33.328Z,977.56
2019-04-23T00:41:55.320Z,977.58
2019-04-23T00:43:08.958Z,977.54
2019-04-23T00:43:55.849Z,977.52
2019-04-23T00:44:52.800Z,977.52
2019-04-23T00:45:54.980Z,977.51
2019-04-23T00:46:55.992Z,977.50
2019-04-23T00:48:57.916Z,977.53
2019-04-23T00:49:58.667Z,977.48
2019-04-23T00:51:18.171Z,977.48
2019-04-23T00:52:00.750Z,977.47
2019-04-23T00:52:57.594Z,977.47
2019-04-23T00:53:54.686Z,977.42
2019-04-23T00:55:14.739Z,977.40
2019-04-23T00:56:03.121Z,977.37
2019-04-23T00:57:01.396Z,977.39
2019-04-23T00:57:58.537Z,977.37
2019-04-23T00:58:58.052Z,977.35
2019-04-23T01:00:03.468Z,977.33
2019-04-23T01:00:57.755Z,977.34
2019-04-23T01:02:01.038Z,977.32
2019-04-23T01:03:17.509Z,977.31
2019-04-23T01:04:18.559Z,977.31
2019-04-23T01:04:59.741Z,977.30
2019-04-23T01:05:57.126Z,977.29
2019-04-23T01:07:02.524Z,977.30
2019-04-23T01:08:00.070Z,977.24
2019-04-23T01:08:59.491Z,977.22
2019-04-23T01:10:06.152Z,977.20
2019-04-23T01:11:02.104Z,977.20
2019-04-23T01:12:03.841Z,977.18
2019-04-23T01:13:00.040Z,977.19
2019-04-23T01:14:04.360Z,977.17
2019-04-23T01:14:57.367Z,977.20
2019-04-23T01:16:00.720Z,977.19
2019-04-23T01:16:55.045Z,977.16
2019-04-23T01:18:03.004Z,977.16
2019-04-23T01:18:54.448Z,977.14
2019-04-23T01:19:54.737Z,977.14
2019-04-23T01:20:57.548Z,977.15
2019-04-23T01:21:57.955Z,977.16
2019-04-23T01:22:37.883Z,977.18
2019-04-23T01:23:47.108Z,977.11
2019-04-23T01:24:38.476Z,977.07
2019-04-23T01:25:51.661Z,977.08
2019-04-23T01:27:16.741Z,977.08
2019-04-23T01:28:04.491Z,977.07
2019-04-23T01:29:08.347Z,977.06
2019-04-23T01:31:08.950Z,977.01
2019-04-23T01:32:12.045Z,977.00
2019-04-23T01:33:05.934Z,976.99
2019-04-23T01:34:11.022Z,977.02
2019-04-23T01:35:20.170Z,977.00
2019-04-23T01:36:16.245Z,976.95
2019-04-23T01:37:07.770Z,976.95
2019-04-23T01:37:59.445Z,976.95
2019-04-23T01:39:06.503Z,976.93
2019-04-23T01:40:04.078Z,976.89
2019-04-23T01:41:07.823Z,976.90
2019-04-23T01:42:14.588Z,976.88
2019-04-23T01:43:04.323Z,976.89
2019-04-23T01:43:55.299Z,976.82
2019-04-23T01:45:07.048Z,976.81
2019-04-23T01:46:07.988Z,976.80
2019-04-23T01:47:15.594Z,976.85
2019-04-23T01:47:59.576Z,976.84
2019-04-23T01:49:07.424Z,976.86
2019-04-23T01:52:08.323Z,976.81
2019-04-23T01:54:30.369Z,976.82
2019-04-23T01:55:09.397Z,976.79
2019-04-23T01:56:06.239Z,976.71
2019-04-23T01:57:11.124Z,976.72
2019-04-23T01:58:25.831Z,976.68
2019-04-23T01:59:16.103Z,976.67
2019-04-23T02:00:14.100Z,976.69
2019-04-23T02:01:07.264Z,976.59
2019-04-23T02:02:08.660Z,976.61
2019-04-23T02:03:34.485Z,976.63
2019-04-23T02:04:14.753Z,976.54
2019-04-23T02:05:15.981Z,976.54
2019-04-23T02:06:09.581Z,976.60
2019-04-23T02:07:15.520Z,976.49
2019-04-23T02:08:08.362Z,976.52
2019-04-23T02:09:12.405Z,976.53
2019-04-23T02:10:16.782Z,976.52
2019-04-23T02:12:42.271Z,976.49
2019-04-23T02:13:47.362Z,976.43
2019-04-23T02:14:41.717Z,976.41
2019-04-23T02:15:40.900Z,976.37
2019-04-23T02:16:57.906Z,976.35
2019-04-23T02:17:47.770Z,976.40
2019-04-23T02:18:43.927Z,976.40
2019-04-23T02:19:49.197Z,976.36
2019-04-23T02:24:14.473Z,976.34
2019-04-23T02:25:16.202Z,976.39
2019-04-23T02:26:12.977Z,976.33
2019-04-23T02:27:13.328Z,976.30
2019-04-23T02:29:23.640Z,976.27
2019-04-23T02:30:49.001Z,976.29
2019-04-23T02:31:34.322Z,976.30
2019-04-23T02:32:23.177Z,976.22
2019-04-23T02:34:31.226Z,976.25
2019-04-23T02:36:39.919Z,976.24
2019-04-23T02:37:36.279Z,976.24
2019-04-23T02:39:49.522Z,976.24
2019-04-23T02:40:26.677Z,976.16
2019-04-23T02:41:41.314Z,976.16
2019-04-23T02:44:09.216Z,976.11
2019-04-23T02:44:56.323Z,976.12
2019-04-23T02:48:19.701Z,976.02
2019-04-23T02:48:58.312Z,976.03
2019-04-23T02:50:53.974Z,976.00
2019-04-23T02:52:03.979Z,976.01
2019-04-23T02:54:16.448Z,975.95
2019-04-23T02:57:13.980Z,975.91
2019-04-23T02:58:01.876Z,975.95
2019-04-23T02:59:05.633Z,975.99
2019-04-23T03:02:58.350Z,975.91
2019-04-23T03:04:57.015Z,975.93
2019-04-23T03:06:24.284Z,975.88
2019-04-23T03:07:09.439Z,975.89
2019-04-23T03:08:20.349Z,975.94
2019-04-23T03:09:07.069Z,975.99
2019-04-23T03:10:20.796Z,975.94
2019-04-23T03:12:02.630Z,975.92
2019-04-23T03:14:25.041Z,975.90
2019-04-23T03:16:06.440Z,975.85
2019-04-23T03:19:32.294Z,975.92
2019-04-23T03:20:32.944Z,975.88
2019-04-23T03:21:31.383Z,975.88
2019-04-23T03:22:35.557Z,975.88
2019-04-23T03:26:56.516Z,975.83
2019-04-23T03:30:30.203Z,975.81
2019-04-23T03:35:09.805Z,975.78
2019-04-23T03:38:05.856Z,975.75
2019-04-23T03:39:37.417Z,975.72
2019-04-23T03:41:15.717Z,975.71
2019-04-23T03:42:11.989Z,975.67
2019-04-23T03:43:07.081Z,975.68
2019-04-23T03:43:57.793Z,975.64
2019-04-23T03:45:27.834Z,975.61
2019-04-23T03:46:29.592Z,975.62
2019-04-23T03:48:08.031Z,975.56
2019-04-23T03:48:59.531Z,975.59
2019-04-23T03:51:05.655Z,975.56
2019-04-23T03:52:23.185Z,975.56
2019-04-23T03:53:04.602Z,975.56
2019-04-23T03:54:21.748Z,975.50
2019-04-23T03:55:28.026Z,975.53
2019-04-23T03:56:41.587Z,975.55
2019-04-23T03:57:23.658Z,975.51
2019-04-23T03:59:10.682Z,975.48
2019-04-23T04:00:17.677Z,975.44
2019-04-23T04:01:12.354Z,975.43
2019-04-23T04:02:20.800Z,975.46
2019-04-23T04:03:27.746Z,975.46
2019-04-23T04:04:31.729Z,975.51
2019-04-23T04:05:17.901Z,975.44
2019-04-23T04:06:13.807Z,975.49
2019-04-23T04:09:17.766Z,975.47
2019-04-23T04:09:59.477Z,975.47
2019-04-23T04:11:11.114Z,975.48
2019-04-23T04:12:16.497Z,975.45
2019-04-23T04:13:07.298Z,975.45
2019-04-23T04:14:23.418Z,975.46
2019-04-23T04:17:09.780Z,975.45
2019-04-23T04:19:24.757Z,975.49
2019-04-23T04:20:22.309Z,975.47
2019-04-23T04:21:14.483Z,975.47
2019-04-23T04:22:21.692Z,975.46
2019-04-23T04:24:21.754Z,975.45
2019-04-23T04:26:49.279Z,975.50
2019-04-23T04:28:17.844Z,975.47
2019-04-23T04:30:22.253Z,975.49
2019-04-23T04:31:13.667Z,975.45
2019-04-23T04:32:03.720Z,975.43
2019-04-23T04:33:41.358Z,975.41
2019-04-23T04:35:29.710Z,975.45
2019-04-23T04:37:35.525Z,975.51
2019-04-23T04:38:25.762Z,975.47
2019-04-23T04:39:15.644Z,975.45
2019-04-23T04:40:23.403Z,975.48
2019-04-23T04:42:30.758Z,975.41
2019-04-23T04:43:22.514Z,975.39
2019-04-23T04:45:23.377Z,975.37
2019-04-23T04:46:35.119Z,975.34
2019-04-23T04:47:25.766Z,975.32
2019-04-23T04:48:09.295Z,975.32
2019-04-23T04:49:30.484Z,975.33
2019-04-23T04:51:48.896Z,975.29
2019-04-23T04:53:47.784Z,975.30
2019-04-23T04:54:21.110Z,975.33
2019-04-23T04:56:21.353Z,975.25
2019-04-23T04:57:35.361Z,975.27
2019-04-23T04:58:35.169Z,975.32
2019-04-23T04:59:14.000Z,975.25
2019-04-23T05:00:20.847Z,975.25
2019-04-23T05:04:21.776Z,975.28
2019-04-23T05:06:39.392Z,975.26
2019-04-23T05:07:32.653Z,975.24
2019-04-23T05:08:19.993Z,975.23
2019-04-23T05:09:19.526Z,975.24
2019-04-23T05:10:29.813Z,975.23
2019-04-23T05:12:19.259Z,975.18
2019-04-23T05:14:26.490Z,975.20
2019-04-23T05:15:35.539Z,975.18
2019-04-23T05:17:30.051Z,975.17
2019-04-23T05:22:59.533Z,975.23
2019-04-23T05:23:54.104Z,975.20
2019-04-23T05:24:54.283Z,975.18
2019-04-23T05:25:51.255Z,975.20
2019-04-23T05:26:48.084Z,975.18
2019-04-23T05:28:07.972Z,975.21
2019-04-23T05:29:00.182Z,975.20
2019-04-23T05:30:22.627Z,975.20
2019-04-23T05:32:24.709Z,975.13
2019-04-23T05:33:22.413Z,975.21
2019-04-23T05:34:22.655Z,975.19
2019-04-23T05:37:25.807Z,975.16
2019-04-23T05:38:37.421Z,975.12
2019-04-23T05:39:29.078Z,975.14
2019-04-23T05:40:30.606Z,975.13
2019-04-23T05:41:33.835Z,975.15
2019-04-23T05:45:15.797Z,975.13
2019-04-23T05:50:00.690Z,975.06
2019-04-23T05:51:04.673Z,975.07
2019-04-23T05:53:05.641Z,975.01
2019-04-23T05:54:22.585Z,974.99
2019-04-23T05:56:34.995Z,974.97
2019-04-23T05:56:55.316Z,975.02
2019-04-23T05:58:03.665Z,974.97
2019-04-23T05:59:05.493Z,974.97
2019-04-23T06:00:02.106Z,975.02
2019-04-23T06:01:05.749Z,975.01
2019-04-23T06:01:57.355Z,975.02
2019-04-23T06:03:04.871Z,974.99
2019-04-23T06:04:17.710Z,975.03
2019-04-23T06:05:00.041Z,975.00
2019-04-23T06:06:04.485Z,975.02
2019-04-23T06:08:09.540Z,974.99
2019-04-23T06:09:09.201Z,974.94
2019-04-23T06:09:59.204Z,975.00
2019-04-23T06:11:01.907Z,974.91
2019-04-23T06:12:00.131Z,974.92
2019-04-23T06:12:57.754Z,974.94
2019-04-23T06:14:25.013Z,974.90
2019-04-23T06:15:01.163Z,974.90
2019-04-23T06:15:59.593Z,974.87
2019-04-23T06:17:11.852Z,974.92
2019-04-23T06:19:21.451Z,974.85
2019-04-23T06:20:07.207Z,974.83
2019-04-23T06:21:03.061Z,974.84
2019-04-23T06:22:11.179Z,974.81
2019-04-23T06:23:29.040Z,974.80
2019-04-23T06:24:15.142Z,974.79
2019-04-23T06:25:15.001Z,974.81
2019-04-23T06:26:25.520Z,974.78
2019-04-23T06:28:08.247Z,974.78
2019-04-23T06:29:07.129Z,974.74
2019-04-23T06:30:00.592Z,974.69
2019-04-23T06:31:13.784Z,974.70
2019-04-23T06:32:02.247Z,974.69
2019-04-23T06:33:11.648Z,974.67
2019-04-23T06:34:04.247Z,974.65
2019-04-23T06:35:13.862Z,974.63
2019-04-23T06:36:05.838Z,974.67
2019-04-23T06:37:24.530Z,974.68
2019-04-23T06:38:22.124Z,974.65
2019-04-23T06:40:00.146Z,974.66
2019-04-23T06:41:01.564Z,974.63
2019-04-23T06:42:42.901Z,974.61
2019-04-23T06:43:04.799Z,974.62
2019-04-23T06:44:14.746Z,974.61
2019-04-23T06:44:59.555Z,974.61
2019-04-23T06:46:04.881Z,974.60
2019-04-23T06:47:09.847Z,974.59
2019-04-23T06:48:32.206Z,974.53
2019-04-23T06:49:02.068Z,974.48
2019-04-23T06:49:58.513Z,974.47
2019-04-23T06:51:11.438Z,974.55
2019-04-23T06:52:58.952Z,974.53
2019-04-23T06:54:36.112Z,974.54
2019-04-23T07:00:48.806Z,974.46
2019-04-23T07:01:53.002Z,974.46
2019-04-23T07:02:45.143Z,974.51
2019-04-23T07:03:51.853Z,974.50
2019-04-23T07:05:55.095Z,974.43
2019-04-23T07:06:48.539Z,974.44
2019-04-23T07:08:05.968Z,974.39
2019-04-23T07:09:05.368Z,974.40
2019-04-23T07:09:48.847Z,974.38
2019-04-23T07:12:25.082Z,974.34
2019-04-23T07:13:21.167Z,974.34
2019-04-23T07:14:16.369Z,974.31
2019-04-23T07:16:21.594Z,974.33
2019-04-23T07:17:16.746Z,974.38
2019-04-23T07:18:18.242Z,974.30
2019-04-23T07:20:21.531Z,974.28
2019-04-23T07:21:43.641Z,974.29
2019-04-23T07:22:26.793Z,974.29
2019-04-23T07:23:21.004Z,974.32
2019-04-23T07:24:45.727Z,974.24
2019-04-23T07:25:39.020Z,974.23
2019-04-23T07:28:34.967Z,974.22
2019-04-23T07:29:22.792Z,974.23
2019-04-23T07:30:33.430Z,974.19
2019-04-23T07:32:15.225Z,974.16
2019-04-23T07:35:10.395Z,974.14
2019-04-23T07:37:00.102Z,974.09
2019-04-23T07:38:32.832Z,974.05
2019-04-23T07:40:21.468Z,974.09
2019-04-23T07:41:07.816Z,974.07
2019-04-23T07:42:29.689Z,974.04
2019-04-23T07:43:23.057Z,974.04
2019-04-23T07:44:36.827Z,973.95
2019-04-23T07:45:04.453Z,973.98
2019-04-23T07:46:10.508Z,974.00
2019-04-23T07:48:13.358Z,973.92
2019-04-23T07:49:08.424Z,973.88
2019-04-23T07:50:15.961Z,973.92
2019-04-23T07:51:00.494Z,973.82
2019-04-23T07:52:10.666Z,973.85
2019-04-23T07:54:11.323Z,973.88
2019-04-23T07:55:09.215Z,973.90
2019-04-23T07:57:10.694Z,973.87
2019-04-23T07:58:14.345Z,973.91
2019-04-23T07:59:03.959Z,973.94
2019-04-23T08:00:18.326Z,973.90
2019-04-23T08:02:08.138Z,973.83
2019-04-23T08:03:33.078Z,973.84
2019-04-23T08:04:04.685Z,973.86
2019-04-23T08:06:10.170Z,973.85
2019-04-23T08:07:06.572Z,973.78
2019-04-23T08:08:24.545Z,973.82
2019-04-23T08:09:03.580Z,973.85
2019-04-23T08:10:24.739Z,973.85
2019-04-23T08:11:23.550Z,973.80
2019-04-23T08:14:48.046Z,973.81
2019-04-23T08:15:45.203Z,973.79
2019-04-23T08:16:50.003Z,973.84
2019-04-23T08:17:43.348Z,973.75
2019-04-23T08:18:45.358Z,973.73
2019-04-23T08:19:49.072Z,973.73
2019-04-23T08:20:46.968Z,973.69
2019-04-23T08:21:36.313Z,973.70
2019-04-23T08:22:40.809Z,973.74
2019-04-23T08:23:49.594Z,973.69
2019-04-23T08:24:52.156Z,973.67
2019-04-23T08:25:44.839Z,973.68
2019-04-23T08:27:45.146Z,973.66
2019-04-23T08:30:09.288Z,973.64
2019-04-23T08:31:30.428Z,973.57
2019-04-23T08:32:19.605Z,973.65
2019-04-23T08:33:17.223Z,973.59
2019-04-23T08:34:31.492Z,973.58
2019-04-23T08:35:36.211Z,973.59
2019-04-23T08:38:01.508Z,973.49
2019-04-23T08:38:50.831Z,973.53
2019-04-23T08:42:33.662Z,973.55
2019-04-23T08:43:20.875Z,973.54
2019-04-23T08:43:59.518Z,973.60
2019-04-23T08:45:52.978Z,973.58
2019-04-23T08:46:56.738Z,973.56
2019-04-23T08:48:27.889Z,973.52
2019-04-23T08:48:57.566Z,973.54
2019-04-23T08:50:54.499Z,973.49
2019-04-23T08:52:56.133Z,973.51
2019-04-23T08:54:25.334Z,973.53
2019-04-23T08:54:52.356Z,973.56
2019-04-23T08:57:07.434Z,973.54
2019-04-23T08:58:22.465Z,973.41
2019-04-23T08:58:48.992Z,973.51
2019-04-23T09:00:17.717Z,973.51
2019-04-23T09:00:59.138Z,973.44
2019-04-23T09:02:03.625Z,973.43
2019-04-23T09:03:04.743Z,973.44
2019-04-23T09:03:57.408Z,973.43
2019-04-23T09:04:53.857Z,973.42
2019-04-23T09:07:00.799Z,973.39
2019-04-23T09:08:07.020Z,973.37
2019-04-23T09:08:49.976Z,973.41
2019-04-23T09:09:57.811Z,973.42
2019-04-23T09:11:32.417Z,973.40
2019-04-23T09:11:54.416Z,973.37
2019-04-23T09:13:11.278Z,973.40
2019-04-23T09:13:55.681Z,973.39
2019-04-23T09:16:28.687Z,973.34
2019-04-23T09:17:28.980Z,973.38
2019-04-23T09:18:27.874Z,973.31
2019-04-23T09:20:26.425Z,973.32
2019-04-23T09:23:58.004Z,973.33
2019-04-23T09:25:03.968Z,973.26
2019-04-23T09:29:41.075Z,973.16
2019-04-23T09:33:06.231Z,973.15
2019-04-23T09:36:30.788Z,973.12
2019-04-23T09:37:06.221Z,973.15
2019-04-23T09:37:59.706Z,973.08
2019-04-23T09:39:10.063Z,973.07
2019-04-23T09:40:18.899Z,973.02
2019-04-23T09:41:18.209Z,973.13
2019-04-23T09:42:33.521Z,973.04
2019-04-23T09:43:08.824Z,973.02
2019-04-23T09:44:47.260Z,973.01
2019-04-23T09:46:12.319Z,973.01
2019-04-23T09:47:10.321Z,973.01
2019-04-23T09:48:11.714Z,972.93
2019-04-23T09:49:09.808Z,972.96
2019-04-23T09:50:00.877Z,973.02
2019-04-23T09:51:30.216Z,972.99
2019-04-23T09:52:09.220Z,973.01
2019-04-23T09:54:40.250Z,972.93
2019-04-23T09:56:40.994Z,972.88
2019-04-23T09:59:17.649Z,972.87
2019-04-23T10:00:15.453Z,972.86
2019-04-23T10:01:09.849Z,972.82
2019-04-23T10:02:23.731Z,972.86
2019-04-23T10:02:47.349Z,972.88
2019-04-23T10:03:53.326Z,972.85
2019-04-23T10:04:56.989Z,972.89
2019-04-23T10:06:10.368Z,972.80
2019-04-23T10:07:07.201Z,972.90
2019-04-23T10:07:51.909Z,972.89
2019-04-23T10:08:47.415Z,972.85
2019-04-23T10:09:42.500Z,972.90
2019-04-23T10:10:42.295Z,972.87
2019-04-23T10:11:42.949Z,972.90
2019-04-23T10:14:16.606Z,972.82
2019-04-23T10:15:22.754Z,972.86
2019-04-23T10:16:19.401Z,972.77
2019-04-23T10:17:18.106Z,972.83
2019-04-23T10:19:53.098Z,972.86
2019-04-23T10:21:13.155Z,972.81
2019-04-23T10:21:53.256Z,972.79
2019-04-23T10:22:52.677Z,972.80
2019-04-23T10:23:57.083Z,972.82
2019-04-23T10:25:15.089Z,972.75
2019-04-23T10:25:54.102Z,972.79
2019-04-23T10:26:52.992Z,972.74
2019-04-23T10:28:15.212Z,972.77
2019-04-23T10:28:54.047Z,972.71
2019-04-23T10:30:19.328Z,972.71
2019-04-23T10:30:54.539Z,972.77
2019-04-23T10:31:53.691Z,972.66
2019-04-23T10:32:53.678Z,972.70
2019-04-23T10:33:53.485Z,972.68
2019-04-23T10:35:28.910Z,972.71
2019-04-23T10:36:00.856Z,972.68
2019-04-23T10:36:55.488Z,972.72
2019-04-23T10:38:02.098Z,972.66
2019-04-23T10:39:23.255Z,972.66
2019-04-23T10:40:00.925Z,972.72
2019-04-23T10:41:00.145Z,972.65
2019-04-23T10:41:55.450Z,972.65
2019-04-23T10:42:56.498Z,972.60
2019-04-23T10:47:06.956Z,972.60
2019-04-23T10:47:47.808Z,972.62
2019-04-23T10:50:31.639Z,972.53
2019-04-23T10:50:49.555Z,972.55
2019-04-23T10:51:51.745Z,972.68
2019-04-23T10:52:53.475Z,972.55
2019-04-23T10:53:45.945Z,972.58
2019-04-23T10:54:45.412Z,972.48
2019-04-23T10:55:54.125Z,972.56
2019-04-23T10:56:46.398Z,972.57
2019-04-23T10:57:36.148Z,972.56
2019-04-23T10:59:10.809Z,972.57
2019-04-23T10:59:58.541Z,972.61
2019-04-23T11:00:46.362Z,972.61
2019-04-23T11:02:04.568Z,972.64
2019-04-23T11:03:12.566Z,972.61
2019-04-23T11:04:42.955Z,972.62
2019-04-23T11:06:17.718Z,972.54
2019-04-23T11:06:49.989Z,972.54
2019-04-23T11:08:14.646Z,972.52
2019-04-23T11:09:06.391Z,972.54
2019-04-23T11:11:52.500Z,972.41
2019-04-23T11:14:58.254Z,972.50
2019-04-23T11:16:12.690Z,972.62
2019-04-23T11:16:57.315Z,972.55
2019-04-23T11:19:56.688Z,972.78
2019-04-23T11:21:00.541Z,972.84
2019-04-23T11:22:28.181Z,972.94
2019-04-23T11:22:58.483Z,972.99
2019-04-23T11:23:55.206Z,972.95
2019-04-23T11:24:48.874Z,973.08
2019-04-23T11:25:48.490Z,973.12
2019-04-23T11:27:19.101Z,973.18
2019-04-23T11:28:13.329Z,973.05
2019-04-23T11:28:45.014Z,973.23
2019-04-23T11:31:36.887Z,972.92
2019-04-23T11:33:20.264Z,972.96
2019-04-23T11:35:29.646Z,972.98
2019-04-23T11:38:01.636Z,973.07
2019-04-23T11:40:03.976Z,973.19
2019-04-23T11:41:00.906Z,973.26
2019-04-23T11:43:34.248Z,973.21
2019-04-23T11:48:07.530Z,973.13
2019-04-23T11:49:22.428Z,973.24
2019-04-23T11:51:45.905Z,973.41
2019-04-23T11:55:22.390Z,973.53
2019-04-23T11:56:02.869Z,973.61
2019-04-23T11:57:27.253Z,973.47
2019-04-23T11:58:13.779Z,973.27
2019-04-23T11:59:12.348Z,973.07
2019-04-23T12:00:05.589Z,972.98
2019-04-23T12:01:11.843Z,972.97
2019-04-23T12:01:56.453Z,972.89
2019-04-23T12:03:07.462Z,972.89
2019-04-23T12:05:32.113Z,972.95
2019-04-23T12:06:12.401Z,972.90
2019-04-23T12:08:33.475Z,972.89
2019-04-23T12:09:07.393Z,972.86
2019-04-23T12:10:18.937Z,972.85
2019-04-23T12:11:36.114Z,972.87
2019-04-23T12:12:02.244Z,972.95
2019-04-23T12:13:35.559Z,972.84
2019-04-23T12:14:10.255Z,972.82
2019-04-23T12:15:11.721Z,972.87
2019-04-23T12:16:10.578Z,972.92
2019-04-23T12:17:24.666Z,972.82
2019-04-23T12:18:28.621Z,972.84
2019-04-23T12:19:37.163Z,972.90
2019-04-23T12:20:13.556Z,972.85
2019-04-23T12:21:12.875Z,972.86
2019-04-23T12:22:15.086Z,972.83
2019-04-23T12:23:17.927Z,972.82
2019-04-23T12:24:17.397Z,972.91
2019-04-23T12:26:22.766Z,972.84
2019-04-23T12:28:07.020Z,972.86
2019-04-23T12:29:09.964Z,972.86
2019-04-23T12:30:12.175Z,972.85
2019-04-23T12:31:11.872Z,972.81
2019-04-23T12:32:24.132Z,972.82
2019-04-23T12:33:28.100Z,972.84
2019-04-23T12:34:08.959Z,972.78
2019-04-23T12:40:27.517Z,972.56
2019-04-23T12:41:36.137Z,972.49
2019-04-23T12:42:36.647Z,972.51
2019-04-23T12:43:17.480Z,972.51
2019-04-23T12:44:14.854Z,972.54
2019-04-23T12:45:25.000Z,972.58
2019-04-23T12:46:13.109Z,972.50
2019-04-23T12:47:27.521Z,972.47
2019-04-23T12:50:05.166Z,972.38
2019-04-23T12:51:55.514Z,972.39
2019-04-23T12:53:52.828Z,972.27
2019-04-23T12:54:58.896Z,972.19
2019-04-23T12:55:43.737Z,972.16
2019-04-23T12:57:01.236Z,972.23
2019-04-23T12:57:50.701Z,971.98
2019-04-23T12:59:16.703Z,971.90
2019-04-23T12:59:53.909Z,972.03
2019-04-23T13:01:17.398Z,971.92
2019-04-23T13:01:57.565Z,971.99
2019-04-23T13:03:45.953Z,971.93
2019-04-23T13:04:51.829Z,971.95
2019-04-23T13:05:49.927Z,971.91
2019-04-23T13:06:51.347Z,971.89
2019-04-23T13:07:52.191Z,971.88
2019-04-23T13:09:17.853Z,971.86
2019-04-23T13:11:50.099Z,971.84
2019-04-23T13:13:54.942Z,971.71
2019-04-23T13:14:56.036Z,971.77
2019-04-23T13:15:53.252Z,971.74
2019-04-23T13:17:38.123Z,971.73
2019-04-23T13:18:04.013Z,971.75
2019-04-23T13:19:29.235Z,971.65
2019-04-23T13:20:14.593Z,971.68
2019-04-23T13:20:47.666Z,971.71
2019-04-23T13:22:21.536Z,971.68
2019-04-23T13:22:54.917Z,971.63
2019-04-23T13:23:49.433Z,971.69
2019-04-23T13:24:57.829Z,971.68
2019-04-23T13:26:10.079Z,971.65
2019-04-23T13:26:56.921Z,971.63
2019-04-23T13:28:02.751Z,971.67
2019-04-23T13:28:52.642Z,971.64
2019-04-23T13:29:56.766Z,971.68
2019-04-23T13:31:59.031Z,971.67
2019-04-23T13:33:00.594Z,971.58
2019-04-23T13:33:51.490Z,971.67
2019-04-23T13:35:22.106Z,971.63
2019-04-23T13:36:03.266Z,971.62
2019-04-23T13:37:00.280Z,971.59
2019-04-23T13:38:27.263Z,971.58
2019-04-23T13:38:57.109Z,971.54
2019-04-23T13:39:51.583Z,971.61
2019-04-23T13:42:40.726Z,971.56
2019-04-23T13:43:36.256Z,971.53
2019-04-23T13:44:46.741Z,971.54
2019-04-23T13:45:53.140Z,971.56
2019-04-23T13:48:14.717Z,971.47
2019-04-23T13:51:32.115Z,971.44
2019-04-23T13:52:57.735Z,971.43
2019-04-23T13:54:06.031Z,971.41
2019-04-23T13:55:00.278Z,971.42
2019-04-23T13:55:35.976Z,971.49
2019-04-23T13:57:57.408Z,971.46
2019-04-23T13:58:38.757Z,971.43
2019-04-23T13:59:48.503Z,971.44
2019-04-23T14:00:52.239Z,971.36
2019-04-23T14:01:35.553Z,971.33
2019-04-23T14:03:41.400Z,971.37
2019-04-23T14:04:53.820Z,971.33
2019-04-23T14:05:41.168Z,971.24
2019-04-23T14:07:40.141Z,971.24
2019-04-23T14:10:08.448Z,971.20
2019-04-23T14:16:48.763Z,971.20
2019-04-23T14:18:02.803Z,971.23
2019-04-23T14:19:06.797Z,971.25
2019-04-23T14:20:10.328Z,971.26
2019-04-23T14:20:53.584Z,971.32
2019-04-23T14:23:17.883Z,971.32
2019-04-23T14:24:08.277Z,971.34
2019-04-23T14:24:53.236Z,971.30
2019-04-23T14:25:59.643Z,971.37
2019-04-23T14:27:08.732Z,971.28
2019-04-23T14:27:49.478Z,971.34
2019-04-23T14:29:55.958Z,971.28
2019-04-23T14:33:24.412Z,971.26
2019-04-23T14:34:15.808Z,971.25
2019-04-23T14:35:25.494Z,971.23
2019-04-23T14:36:37.049Z,971.27
2019-04-23T14:37:22.082Z,971.22
2019-04-23T14:40:29.621Z,971.20
2019-04-23T14:42:33.727Z,971.19
2019-04-23T14:43:49.367Z,971.22
2019-04-23T14:44:20.034Z,971.19
2019-04-23T14:45:44.217Z,971.16
2019-04-23T14:47:27.826Z,971.15
2019-04-23T14:48:39.121Z,971.15
2019-04-23T14:49:20.547Z,971.13
2019-04-23T14:50:32.438Z,971.16
2019-04-23T14:51:31.987Z,971.12
2019-04-23T14:53:24.541Z,971.17
2019-04-23T14:54:36.244Z,971.15
2019-04-23T14:56:22.279Z,971.12
2019-04-23T14:59:14.185Z,971.18
2019-04-23T14:59:57.351Z,971.08
2019-04-23T15:01:10.663Z,971.13
2019-04-23T15:02:00.833Z,971.19
2019-04-23T15:02:59.113Z,971.22
2019-04-23T15:03:55.932Z,971.16
2019-04-23T15:04:54.130Z,971.15
2019-04-23T15:07:02.558Z,971.13
2019-04-23T15:07:58.040Z,971.07
2019-04-23T15:09:07.415Z,971.12
2019-04-23T15:10:08.541Z,971.14
2019-04-23T15:11:26.424Z,971.13
2019-04-23T15:12:02.053Z,971.09
2019-04-23T15:13:00.038Z,971.03
2019-04-23T15:13:53.933Z,971.08
2019-04-23T15:16:07.772Z,971.05
2019-04-23T15:17:00.384Z,971.10
2019-04-23T15:18:29.732Z,971.11
2019-04-23T15:19:11.007Z,971.09
2019-04-23T15:19:55.137Z,971.03
2019-04-23T15:21:25.582Z,971.00
2019-04-23T15:22:07.858Z,971.03
2019-04-23T15:25:11.039Z,971.05
2019-04-23T15:26:54.126Z,971.01
2019-04-23T15:28:10.943Z,971.05
2019-04-23T15:28:41.203Z,971.01
2019-04-23T15:29:56.494Z,971.05
2019-04-23T15:31:02.749Z,970.97
2019-04-23T15:32:03.181Z,971.00
2019-04-23T15:36:14.230Z,970.97
2019-04-23T15:37:14.116Z,970.97
2019-04-23T15:38:38.210Z,970.98
2019-04-23T15:40:34.416Z,970.96
2019-04-23T15:42:36.904Z,970.99
2019-04-23T15:44:03.097Z,970.96
2019-04-23T15:44:55.349Z,970.95
2019-04-23T15:45:46.066Z,970.97
2019-04-23T15:46:35.446Z,970.94
2019-04-23T15:47:53.381Z,970.93
2019-04-23T15:49:01.187Z,970.97
2019-04-23T15:50:40.137Z,970.98
2019-04-23T15:51:35.453Z,971.02
2019-04-23T15:54:37.091Z,971.00
2019-04-23T15:55:01.460Z,970.96
2019-04-23T15:56:13.881Z,970.95
2019-04-23T15:57:45.219Z,970.93
2019-04-23T16:01:43.867Z,970.93
2019-04-23T16:02:42.879Z,970.93
2019-04-23T16:03:45.314Z,970.94
2019-04-23T16:04:46.992Z,970.93
2019-04-23T16:05:44.691Z,970.99
2019-04-23T16:06:43.672Z,970.92
2019-04-23T16:08:01.719Z,970.90
2019-04-23T16:09:08.073Z,970.93
2019-04-23T16:10:14.463Z,970.94
2019-04-23T16:11:15.755Z,970.94
2019-04-23T16:12:03.430Z,970.93
2019-04-23T16:13:29.130Z,970.92
2019-04-23T16:14:22.751Z,970.92
2019-04-23T16:15:15.220Z,970.91
2019-04-23T16:16:14.606Z,970.90
2019-04-23T16:19:07.711Z,970.92
2019-04-23T16:19:54.982Z,970.90
2019-04-23T16:21:26.641Z,970.90
2019-04-23T16:22:39.438Z,970.94
2019-04-23T16:23:45.827Z,970.87
2019-04-23T16:24:48.523Z,970.87
2019-04-23T16:25:50.339Z,970.86
2019-04-23T16:28:23.986Z,970.91
2019-04-23T16:32:28.078Z,970.89
2019-04-23T16:33:14.123Z,970.90
2019-04-23T16:34:22.497Z,970.87
2019-04-23T16:35:28.640Z,970.87
2019-04-23T16:36:19.781Z,970.88
2019-04-23T16:37:20.133Z,970.88
2019-04-23T16:39:16.816Z,970.91
2019-04-23T16:40:19.646Z,970.89